sensor_id;sensor_type;location;lat;lon;timestamp;P1;durP1;ratioP1;P2;durP2;ratioP2
36195;SDS011;22237;51.974;4.616;2022-12-18T00:01:37;700.05;;;644.90;;
36195;SDS011;22237;51.974;4.616;2022-12-18T00:04:06;731.92;;;676.83;;
36195;SDS011;22237;51.974;4.616;2022-12-18T00:06:32;695.10;;;642.33;;
36195;SDS011;22237;51.974;4.616;2022-12-18T00:08:58;713.40;;;656.35;;
36195;SDS011;22237;51.974;4.616;2022-12-18T00:11:25;684.50;;;632.72;;
36195;SDS011;22237;51.974;4.616;2022-12-18T00:13:50;745.58;;;686.63;;
36195;SDS011;22237;51.974;4.616;2022-12-18T00:16:19;819.55;;;754.00;;
36195;SDS011;22237;51.974;4.616;2022-12-18T00:18:45;757.97;;;693.83;;
36195;SDS011;22237;51.974;4.616;2022-12-18T00:21:11;727.13;;;670.72;;
36195;SDS011;22237;51.974;4.616;2022-12-18T00:23:37;818.45;;;752.88;;
36195;SDS011;22237;51.974;4.616;2022-12-18T00:26:03;665.65;;;608.15;;
36195;SDS011;22237;51.974;4.616;2022-12-18T00:28:29;747.92;;;689.60;;
36195;SDS011;22237;51.974;4.616;2022-12-18T00:31:13;537.65;;;496.42;;
36195;SDS011;22237;51.974;4.616;2022-12-18T00:33:38;665.67;;;612.78;;
36195;SDS011;22237;51.974;4.616;2022-12-18T00:36:04;625.75;;;575.53;;
36195;SDS011;22237;51.974;4.616;2022-12-18T00:38:30;703.60;;;648.95;;
36195;SDS011;22237;51.974;4.616;2022-12-18T00:40:56;649.15;;;600.28;;
36195;SDS011;22237;51.974;4.616;2022-12-18T00:43:21;728.13;;;671.58;;
36195;SDS011;22237;51.974;4.616;2022-12-18T00:45:46;743.58;;;685.25;;
36195;SDS011;22237;51.974;4.616;2022-12-18T00:48:12;677.28;;;625.25;;
36195;SDS011;22237;51.974;4.616;2022-12-18T00:50:37;761.47;;;699.30;;
36195;SDS011;22237;51.974;4.616;2022-12-18T00:53:03;661.30;;;609.28;;
36195;SDS011;22237;51.974;4.616;2022-12-18T00:55:28;830.03;;;762.22;;
36195;SDS011;22237;51.974;4.616;2022-12-18T00:57:53;768.45;;;708.05;;
36195;SDS011;22237;51.974;4.616;2022-12-18T01:00:18;800.13;;;736.95;;
36195;SDS011;22237;51.974;4.616;2022-12-18T01:02:44;644.35;;;593.72;;
36195;SDS011;22237;51.974;4.616;2022-12-18T01:05:10;824.60;;;756.90;;
36195;SDS011;22237;51.974;4.616;2022-12-18T01:07:35;702.33;;;645.30;;
36195;SDS011;22237;51.974;4.616;2022-12-18T01:10:00;692.70;;;638.97;;
36195;SDS011;22237;51.974;4.616;2022-12-18T01:12:26;564.83;;;520.42;;
36195;SDS011;22237;51.974;4.616;2022-12-18T01:14:51;814.05;;;748.45;;
36195;SDS011;22237;51.974;4.616;2022-12-18T01:17:16;807.28;;;743.33;;
36195;SDS011;22237;51.974;4.616;2022-12-18T01:19:41;777.35;;;715.85;;
36195;SDS011;22237;51.974;4.616;2022-12-18T01:22:07;779.22;;;719.00;;
36195;SDS011;22237;51.974;4.616;2022-12-18T01:24:32;710.50;;;653.78;;
36195;SDS011;22237;51.974;4.616;2022-12-18T01:26:57;756.90;;;697.28;;
36195;SDS011;22237;51.974;4.616;2022-12-18T01:29:23;656.90;;;603.72;;
36195;SDS011;22237;51.974;4.616;2022-12-18T01:31:48;794.17;;;731.78;;
36195;SDS011;22237;51.974;4.616;2022-12-18T01:34:13;780.05;;;717.35;;
36195;SDS011;22237;51.974;4.616;2022-12-18T01:36:39;677.38;;;624.03;;
36195;SDS011;22237;51.974;4.616;2022-12-18T01:39:05;782.45;;;719.58;;
36195;SDS011;22237;51.974;4.616;2022-12-18T01:41:32;751.58;;;693.47;;
36195;SDS011;22237;51.974;4.616;2022-12-18T01:47:00;751.30;;;692.58;;
36195;SDS011;22237;51.974;4.616;2022-12-18T01:49:25;683.83;;;631.83;;
36195;SDS011;22237;51.974;4.616;2022-12-18T01:51:50;726.55;;;670.45;;
36195;SDS011;22237;51.974;4.616;2022-12-18T01:54:15;732.25;;;675.13;;
36195;SDS011;22237;51.974;4.616;2022-12-18T01:56:41;777.15;;;714.97;;
36195;SDS011;22237;51.974;4.616;2022-12-18T01:59:06;752.60;;;692.78;;
36195;SDS011;22237;51.974;4.616;2022-12-18T02:01:34;680.70;;;626.78;;
36195;SDS011;22237;51.974;4.616;2022-12-18T02:06:43;581.78;;;537.85;;
36195;SDS011;22237;51.974;4.616;2022-12-18T02:09:16;581.35;;;536.15;;
36195;SDS011;22237;51.974;4.616;2022-12-18T02:14:25;584.05;;;538.65;;
36195;SDS011;22237;51.974;4.616;2022-12-18T02:19:32;564.15;;;520.80;;
36195;SDS011;22237;51.974;4.616;2022-12-18T02:25:12;406.17;;;376.35;;
36195;SDS011;22237;51.974;4.616;2022-12-18T02:27:32;421.05;;;388.75;;
36195;SDS011;22237;51.974;4.616;2022-12-18T02:29:59;476.75;;;439.65;;
36195;SDS011;22237;51.974;4.616;2022-12-18T02:32:45;624.72;;;576.63;;
36195;SDS011;22237;51.974;4.616;2022-12-18T02:35:13;382.83;;;354.02;;
36195;SDS011;22237;51.974;4.616;2022-12-18T02:37:39;378.55;;;350.17;;
36195;SDS011;22237;51.974;4.616;2022-12-18T02:40:07;457.13;;;420.92;;
36195;SDS011;22237;51.974;4.616;2022-12-18T02:42:32;543.78;;;500.42;;
36195;SDS011;22237;51.974;4.616;2022-12-18T02:44:58;489.13;;;453.15;;
36195;SDS011;22237;51.974;4.616;2022-12-18T02:47:24;539.13;;;497.42;;
36195;SDS011;22237;51.974;4.616;2022-12-18T02:49:55;540.72;;;499.73;;
36195;SDS011;22237;51.974;4.616;2022-12-18T02:57:36;466.35;;;429.98;;
36195;SDS011;22237;51.974;4.616;2022-12-18T03:00:06;593.00;;;546.10;;
36195;SDS011;22237;51.974;4.616;2022-12-18T03:07:35;491.90;;;453.35;;
36195;SDS011;22237;51.974;4.616;2022-12-18T03:10:01;450.35;;;416.02;;
36195;SDS011;22237;51.974;4.616;2022-12-18T03:12:31;273.75;;;253.45;;
36195;SDS011;22237;51.974;4.616;2022-12-18T03:14:59;373.90;;;345.98;;
36195;SDS011;22237;51.974;4.616;2022-12-18T03:17:26;506.15;;;466.08;;
36195;SDS011;22237;51.974;4.616;2022-12-18T03:19:52;401.77;;;370.35;;
36195;SDS011;22237;51.974;4.616;2022-12-18T03:22:18;569.30;;;522.67;;
36195;SDS011;22237;51.974;4.616;2022-12-18T03:24:44;585.70;;;538.38;;
36195;SDS011;22237;51.974;4.616;2022-12-18T03:27:11;447.35;;;411.05;;
36195;SDS011;22237;51.974;4.616;2022-12-18T03:29:42;450.33;;;415.63;;
36195;SDS011;22237;51.974;4.616;2022-12-18T03:32:14;303.90;;;281.27;;
36195;SDS011;22237;51.974;4.616;2022-12-18T03:34:41;335.70;;;310.15;;
36195;SDS011;22237;51.974;4.616;2022-12-18T03:37:07;294.45;;;273.15;;
36195;SDS011;22237;51.974;4.616;2022-12-18T03:39:32;235.45;;;217.68;;
36195;SDS011;22237;51.974;4.616;2022-12-18T03:44:29;99.40;;;93.30;;
36195;SDS011;22237;51.974;4.616;2022-12-18T03:47:12;50.13;;;47.03;;
36195;SDS011;22237;51.974;4.616;2022-12-18T03:52:43;48.58;;;45.60;;
36195;SDS011;22237;51.974;4.616;2022-12-18T03:55:11;72.07;;;67.53;;
36195;SDS011;22237;51.974;4.616;2022-12-18T03:57:37;64.57;;;60.65;;
36195;SDS011;22237;51.974;4.616;2022-12-18T04:00:07;62.88;;;59.03;;
36195;SDS011;22237;51.974;4.616;2022-12-18T04:02:33;48.50;;;45.58;;
36195;SDS011;22237;51.974;4.616;2022-12-18T04:05:00;82.93;;;77.70;;
36195;SDS011;22237;51.974;4.616;2022-12-18T04:07:27;55.08;;;51.70;;
36195;SDS011;22237;51.974;4.616;2022-12-18T04:09:53;63.47;;;59.50;;
36195;SDS011;22237;51.974;4.616;2022-12-18T04:12:21;62.10;;;58.30;;
36195;SDS011;22237;51.974;4.616;2022-12-18T04:14:46;125.40;;;116.53;;
36195;SDS011;22237;51.974;4.616;2022-12-18T04:17:11;99.22;;;93.00;;
36195;SDS011;22237;51.974;4.616;2022-12-18T04:19:36;133.95;;;125.32;;
36195;SDS011;22237;51.974;4.616;2022-12-18T04:22:02;77.57;;;72.85;;
36195;SDS011;22237;51.974;4.616;2022-12-18T04:24:27;100.90;;;94.07;;
36195;SDS011;22237;51.974;4.616;2022-12-18T04:26:52;130.00;;;121.13;;
36195;SDS011;22237;51.974;4.616;2022-12-18T04:29:17;151.93;;;141.75;;
36195;SDS011;22237;51.974;4.616;2022-12-18T04:31:42;129.00;;;119.75;;
36195;SDS011;22237;51.974;4.616;2022-12-18T04:34:11;161.75;;;149.57;;
36195;SDS011;22237;51.974;4.616;2022-12-18T04:36:36;104.38;;;97.43;;
36195;SDS011;22237;51.974;4.616;2022-12-18T04:39:01;217.75;;;202.20;;
36195;SDS011;22237;51.974;4.616;2022-12-18T04:41:27;158.35;;;146.85;;
36195;SDS011;22237;51.974;4.616;2022-12-18T04:43:52;152.00;;;141.68;;
36195;SDS011;22237;51.974;4.616;2022-12-18T04:46:17;123.07;;;114.45;;
36195;SDS011;22237;51.974;4.616;2022-12-18T04:48:44;165.43;;;153.25;;
36195;SDS011;22237;51.974;4.616;2022-12-18T04:51:10;172.32;;;159.77;;
36195;SDS011;22237;51.974;4.616;2022-12-18T04:53:35;162.95;;;151.23;;
36195;SDS011;22237;51.974;4.616;2022-12-18T04:58:28;117.68;;;109.90;;
36195;SDS011;22237;51.974;4.616;2022-12-18T05:00:54;104.40;;;97.72;;
36195;SDS011;22237;51.974;4.616;2022-12-18T05:03:19;87.22;;;81.45;;
36195;SDS011;22237;51.974;4.616;2022-12-18T05:05:44;62.75;;;58.83;;
36195;SDS011;22237;51.974;4.616;2022-12-18T05:08:09;97.53;;;91.10;;
36195;SDS011;22237;51.974;4.616;2022-12-18T05:10:34;92.78;;;86.38;;
36195;SDS011;22237;51.974;4.616;2022-12-18T05:13:00;83.93;;;76.07;;
36195;SDS011;22237;51.974;4.616;2022-12-18T05:15:28;54.97;;;51.47;;
36195;SDS011;22237;51.974;4.616;2022-12-18T05:17:54;49.88;;;46.85;;
36195;SDS011;22237;51.974;4.616;2022-12-18T05:20:19;39.80;;;37.42;;
36195;SDS011;22237;51.974;4.616;2022-12-18T05:22:45;47.72;;;44.67;;
36195;SDS011;22237;51.974;4.616;2022-12-18T05:25:10;24.27;;;22.77;;
36195;SDS011;22237;51.974;4.616;2022-12-18T05:27:35;27.10;;;25.20;;
36195;SDS011;22237;51.974;4.616;2022-12-18T05:30:01;24.17;;;22.77;;
36195;SDS011;22237;51.974;4.616;2022-12-18T05:32:26;19.77;;;18.70;;
36195;SDS011;22237;51.974;4.616;2022-12-18T05:34:51;28.27;;;26.65;;
36195;SDS011;22237;51.974;4.616;2022-12-18T05:37:16;23.15;;;21.83;;
36195;SDS011;22237;51.974;4.616;2022-12-18T05:39:42;26.95;;;24.98;;
36195;SDS011;22237;51.974;4.616;2022-12-18T05:42:07;20.35;;;19.20;;
36195;SDS011;22237;51.974;4.616;2022-12-18T05:44:32;26.45;;;24.95;;
36195;SDS011;22237;51.974;4.616;2022-12-18T05:46:58;25.25;;;23.80;;
36195;SDS011;22237;51.974;4.616;2022-12-18T05:49:23;19.60;;;18.52;;
36195;SDS011;22237;51.974;4.616;2022-12-18T05:51:48;18.83;;;17.77;;
36195;SDS011;22237;51.974;4.616;2022-12-18T05:54:13;26.80;;;25.27;;
36195;SDS011;22237;51.974;4.616;2022-12-18T05:56:38;25.60;;;23.95;;
36195;SDS011;22237;51.974;4.616;2022-12-18T05:59:04;15.07;;;14.25;;
36195;SDS011;22237;51.974;4.616;2022-12-18T06:01:29;20.23;;;19.10;;
36195;SDS011;22237;51.974;4.616;2022-12-18T06:03:54;22.33;;;21.05;;
36195;SDS011;22237;51.974;4.616;2022-12-18T06:06:23;21.10;;;19.50;;
36195;SDS011;22237;51.974;4.616;2022-12-18T06:08:49;19.83;;;18.70;;
36195;SDS011;22237;51.974;4.616;2022-12-18T06:11:19;13.65;;;12.90;;
36195;SDS011;22237;51.974;4.616;2022-12-18T06:13:44;16.23;;;15.32;;
36195;SDS011;22237;51.974;4.616;2022-12-18T06:16:09;18.08;;;17.10;;
36195;SDS011;22237;51.974;4.616;2022-12-18T06:18:35;22.35;;;21.13;;
36195;SDS011;22237;51.974;4.616;2022-12-18T06:21:00;24.65;;;23.25;;
36195;SDS011;22237;51.974;4.616;2022-12-18T06:23:25;17.77;;;16.80;;
36195;SDS011;22237;51.974;4.616;2022-12-18T06:25:51;14.73;;;13.93;;
36195;SDS011;22237;51.974;4.616;2022-12-18T06:28:16;19.85;;;18.48;;
36195;SDS011;22237;51.974;4.616;2022-12-18T06:30:47;22.25;;;21.00;;
36195;SDS011;22237;51.974;4.616;2022-12-18T06:35:38;4.82;;;4.60;;
36195;SDS011;22237;51.974;4.616;2022-12-18T06:38:04;11.73;;;11.10;;
36195;SDS011;22237;51.974;4.616;2022-12-18T06:40:29;17.35;;;16.38;;
36195;SDS011;22237;51.974;4.616;2022-12-18T06:42:54;39.05;;;22.63;;
36195;SDS011;22237;51.974;4.616;2022-12-18T06:45:19;19.67;;;18.58;;
36195;SDS011;22237;51.974;4.616;2022-12-18T06:47:45;20.70;;;19.40;;
36195;SDS011;22237;51.974;4.616;2022-12-18T06:50:10;21.70;;;20.48;;
36195;SDS011;22237;51.974;4.616;2022-12-18T06:52:36;12.75;;;12.05;;
36195;SDS011;22237;51.974;4.616;2022-12-18T06:55:01;18.83;;;17.77;;
36195;SDS011;22237;51.974;4.616;2022-12-18T06:57:27;21.95;;;20.73;;
36195;SDS011;22237;51.974;4.616;2022-12-18T06:59:52;21.02;;;19.75;;
36195;SDS011;22237;51.974;4.616;2022-12-18T07:02:17;17.65;;;16.67;;
36195;SDS011;22237;51.974;4.616;2022-12-18T07:04:43;15.43;;;14.57;;
36195;SDS011;22237;51.974;4.616;2022-12-18T07:07:08;20.60;;;19.40;;
36195;SDS011;22237;51.974;4.616;2022-12-18T07:09:33;18.27;;;17.27;;
36195;SDS011;22237;51.974;4.616;2022-12-18T07:11:58;14.65;;;13.85;;
36195;SDS011;22237;51.974;4.616;2022-12-18T07:14:23;15.75;;;14.88;;
36195;SDS011;22237;51.974;4.616;2022-12-18T07:16:49;10.10;;;9.57;;
36195;SDS011;22237;51.974;4.616;2022-12-18T07:19:14;18.23;;;17.20;;
36195;SDS011;22237;51.974;4.616;2022-12-18T07:21:39;15.57;;;14.73;;
36195;SDS011;22237;51.974;4.616;2022-12-18T07:24:04;16.45;;;15.55;;
36195;SDS011;22237;51.974;4.616;2022-12-18T07:26:30;8.95;;;8.45;;
36195;SDS011;22237;51.974;4.616;2022-12-18T07:28:57;18.60;;;17.55;;
36195;SDS011;22237;51.974;4.616;2022-12-18T07:31:23;15.98;;;15.10;;
36195;SDS011;22237;51.974;4.616;2022-12-18T07:33:48;18.42;;;17.42;;
36195;SDS011;22237;51.974;4.616;2022-12-18T07:36:14;16.20;;;15.30;;
36195;SDS011;22237;51.974;4.616;2022-12-18T07:38:39;22.65;;;21.40;;
36195;SDS011;22237;51.974;4.616;2022-12-18T07:41:06;18.67;;;17.63;;
36195;SDS011;22237;51.974;4.616;2022-12-18T07:43:31;25.20;;;23.75;;
36195;SDS011;22237;51.974;4.616;2022-12-18T07:45:57;28.55;;;26.90;;
36195;SDS011;22237;51.974;4.616;2022-12-18T07:48:22;28.35;;;26.73;;
36195;SDS011;22237;51.974;4.616;2022-12-18T07:50:47;27.90;;;26.30;;
36195;SDS011;22237;51.974;4.616;2022-12-18T07:53:13;13.98;;;13.20;;
36195;SDS011;22237;51.974;4.616;2022-12-18T07:55:39;34.50;;;32.53;;
36195;SDS011;22237;51.974;4.616;2022-12-18T07:58:04;19.92;;;18.80;;
36195;SDS011;22237;51.974;4.616;2022-12-18T08:00:30;18.63;;;17.58;;
36195;SDS011;22237;51.974;4.616;2022-12-18T08:02:55;30.23;;;28.50;;
36195;SDS011;22237;51.974;4.616;2022-12-18T08:05:20;26.08;;;24.58;;
36195;SDS011;22237;51.974;4.616;2022-12-18T08:07:46;21.98;;;20.73;;
36195;SDS011;22237;51.974;4.616;2022-12-18T08:10:12;46.40;;;43.65;;
36195;SDS011;22237;51.974;4.616;2022-12-18T08:12:38;28.55;;;26.90;;
36195;SDS011;22237;51.974;4.616;2022-12-18T08:15:03;45.50;;;42.83;;
36195;SDS011;22237;51.974;4.616;2022-12-18T08:17:28;35.33;;;33.28;;
36195;SDS011;22237;51.974;4.616;2022-12-18T08:19:53;37.60;;;35.42;;
36195;SDS011;22237;51.974;4.616;2022-12-18T08:22:19;34.60;;;32.58;;
36195;SDS011;22237;51.974;4.616;2022-12-18T08:24:44;37.92;;;35.65;;
36195;SDS011;22237;51.974;4.616;2022-12-18T08:27:09;36.25;;;34.13;;
36195;SDS011;22237;51.974;4.616;2022-12-18T08:29:36;47.35;;;44.45;;
36195;SDS011;22237;51.974;4.616;2022-12-18T08:32:01;42.05;;;39.60;;
36195;SDS011;22237;51.974;4.616;2022-12-18T08:34:26;46.80;;;44.10;;
36195;SDS011;22237;51.974;4.616;2022-12-18T08:36:51;61.67;;;58.05;;
36195;SDS011;22237;51.974;4.616;2022-12-18T08:39:16;51.67;;;48.65;;
36195;SDS011;22237;51.974;4.616;2022-12-18T08:41:42;31.70;;;29.88;;
36195;SDS011;22237;51.974;4.616;2022-12-18T08:44:07;38.92;;;36.65;;
36195;SDS011;22237;51.974;4.616;2022-12-18T08:46:51;51.20;;;48.15;;
36195;SDS011;22237;51.974;4.616;2022-12-18T08:49:16;44.38;;;41.80;;
36195;SDS011;22237;51.974;4.616;2022-12-18T08:51:41;49.78;;;46.83;;
36195;SDS011;22237;51.974;4.616;2022-12-18T08:54:07;51.03;;;48.03;;
36195;SDS011;22237;51.974;4.616;2022-12-18T08:56:38;58.63;;;55.17;;
36195;SDS011;22237;51.974;4.616;2022-12-18T08:59:03;62.70;;;59.03;;
36195;SDS011;22237;51.974;4.616;2022-12-18T09:01:29;64.55;;;60.70;;
36195;SDS011;22237;51.974;4.616;2022-12-18T09:03:54;82.30;;;77.32;;
36195;SDS011;22237;51.974;4.616;2022-12-18T09:06:20;105.68;;;99.32;;
36195;SDS011;22237;51.974;4.616;2022-12-18T09:08:45;128.93;;;121.00;;
36195;SDS011;22237;51.974;4.616;2022-12-18T09:11:21;86.85;;;81.70;;
36195;SDS011;22237;51.974;4.616;2022-12-18T09:13:46;97.35;;;91.53;;
36195;SDS011;22237;51.974;4.616;2022-12-18T09:16:12;87.90;;;82.60;;
36195;SDS011;22237;51.974;4.616;2022-12-18T09:18:37;139.27;;;130.52;;
36195;SDS011;22237;51.974;4.616;2022-12-18T09:21:09;105.38;;;98.80;;
36195;SDS011;22237;51.974;4.616;2022-12-18T09:23:34;157.00;;;146.95;;
36195;SDS011;22237;51.974;4.616;2022-12-18T09:26:00;182.65;;;171.13;;
36195;SDS011;22237;51.974;4.616;2022-12-18T09:28:25;187.68;;;174.88;;
36195;SDS011;22237;51.974;4.616;2022-12-18T09:30:50;269.30;;;251.57;;
36195;SDS011;22237;51.974;4.616;2022-12-18T09:33:16;275.58;;;257.83;;
36195;SDS011;22237;51.974;4.616;2022-12-18T09:35:42;175.80;;;164.65;;
36195;SDS011;22237;51.974;4.616;2022-12-18T09:38:08;346.17;;;322.42;;
36195;SDS011;22237;51.974;4.616;2022-12-18T09:40:36;342.80;;;319.25;;
36195;SDS011;22237;51.974;4.616;2022-12-18T09:43:05;464.15;;;431.20;;
36195;SDS011;22237;51.974;4.616;2022-12-18T09:45:34;494.55;;;459.70;;
36195;SDS011;22237;51.974;4.616;2022-12-18T09:48:03;499.50;;;463.85;;
36195;SDS011;22237;51.974;4.616;2022-12-18T09:52:55;534.55;;;494.95;;
36195;SDS011;22237;51.974;4.616;2022-12-18T09:55:36;541.58;;;502.67;;
36195;SDS011;22237;51.974;4.616;2022-12-18T09:58:07;571.35;;;530.45;;
36195;SDS011;22237;51.974;4.616;2022-12-18T10:00:37;557.47;;;515.53;;
36195;SDS011;22237;51.974;4.616;2022-12-18T10:03:12;754.90;;;696.33;;
36195;SDS011;22237;51.974;4.616;2022-12-18T10:08:13;745.70;;;687.80;;
36195;SDS011;22237;51.974;4.616;2022-12-18T10:10:51;686.00;;;634.00;;
36195;SDS011;22237;51.974;4.616;2022-12-18T10:20:46;815.75;;;752.58;;
36195;SDS011;22237;51.974;4.616;2022-12-18T10:28:15;834.88;;;769.10;;
36195;SDS011;22237;51.974;4.616;2022-12-18T10:30:41;867.15;;;799.60;;
36195;SDS011;22237;51.974;4.616;2022-12-18T10:33:10;858.10;;;791.25;;
36195;SDS011;22237;51.974;4.616;2022-12-18T10:35:37;849.15;;;783.10;;
36195;SDS011;22237;51.974;4.616;2022-12-18T10:38:07;808.97;;;747.40;;
36195;SDS011;22237;51.974;4.616;2022-12-18T10:40:59;831.85;;;768.40;;
36195;SDS011;22237;51.974;4.616;2022-12-18T10:43:28;815.90;;;752.80;;
36195;SDS011;22237;51.974;4.616;2022-12-18T10:48:23;799.63;;;735.17;;
36195;SDS011;22237;51.974;4.616;2022-12-18T10:50:49;679.40;;;624.38;;
36195;SDS011;22237;51.974;4.616;2022-12-18T10:53:23;829.53;;;760.47;;
36195;SDS011;22237;51.974;4.616;2022-12-18T10:55:50;718.35;;;659.70;;
36195;SDS011;22237;51.974;4.616;2022-12-18T11:01:01;710.42;;;650.15;;
36195;SDS011;22237;51.974;4.616;2022-12-18T11:03:31;638.97;;;586.10;;
36195;SDS011;22237;51.974;4.616;2022-12-18T11:06:01;700.03;;;642.20;;
36195;SDS011;22237;51.974;4.616;2022-12-18T11:08:26;595.97;;;546.58;;
36195;SDS011;22237;51.974;4.616;2022-12-18T11:10:52;460.95;;;424.08;;
36195;SDS011;22237;51.974;4.616;2022-12-18T11:13:18;593.45;;;545.28;;
36195;SDS011;22237;51.974;4.616;2022-12-18T11:15:45;457.23;;;420.30;;
36195;SDS011;22237;51.974;4.616;2022-12-18T11:18:17;449.20;;;411.38;;
36195;SDS011;22237;51.974;4.616;2022-12-18T11:20:44;270.63;;;249.30;;
36195;SDS011;22237;51.974;4.616;2022-12-18T11:23:15;238.82;;;219.18;;
36195;SDS011;22237;51.974;4.616;2022-12-18T11:25:40;340.90;;;311.02;;
36195;SDS011;22237;51.974;4.616;2022-12-18T11:28:25;197.43;;;180.48;;
36195;SDS011;22237;51.974;4.616;2022-12-18T11:31:15;134.10;;;122.88;;
36195;SDS011;22237;51.974;4.616;2022-12-18T11:33:38;374.23;;;341.85;;
36195;SDS011;22237;51.974;4.616;2022-12-18T11:36:05;179.75;;;165.02;;
36195;SDS011;22237;51.974;4.616;2022-12-18T11:38:37;146.43;;;134.88;;
36195;SDS011;22237;51.974;4.616;2022-12-18T11:41:04;67.43;;;61.13;;
36195;SDS011;22237;51.974;4.616;2022-12-18T11:43:35;88.22;;;80.57;;
36195;SDS011;22237;51.974;4.616;2022-12-18T11:48:32;384.05;;;349.20;;
36195;SDS011;22237;51.974;4.616;2022-12-18T11:50:59;92.05;;;84.68;;
36195;SDS011;22237;51.974;4.616;2022-12-18T11:53:25;77.53;;;70.88;;
36195;SDS011;22237;51.974;4.616;2022-12-18T11:58:35;75.95;;;68.93;;
36195;SDS011;22237;51.974;4.616;2022-12-18T12:06:10;64.65;;;59.35;;
36195;SDS011;22237;51.974;4.616;2022-12-18T12:19:02;40.03;;;36.17;;
36195;SDS011;22237;51.974;4.616;2022-12-18T12:21:36;167.95;;;153.98;;
36195;SDS011;22237;51.974;4.616;2022-12-18T12:24:13;68.15;;;61.65;;
36195;SDS011;22237;51.974;4.616;2022-12-18T12:29:20;57.93;;;52.53;;
36195;SDS011;22237;51.974;4.616;2022-12-18T12:39:37;37.53;;;34.10;;
36195;SDS011;22237;51.974;4.616;2022-12-18T12:42:08;44.80;;;40.70;;
36195;SDS011;22237;51.974;4.616;2022-12-18T12:44:55;45.72;;;41.75;;
36195;SDS011;22237;51.974;4.616;2022-12-18T12:47:31;46.47;;;42.08;;
36195;SDS011;22237;51.974;4.616;2022-12-18T12:49:58;40.20;;;36.28;;
36195;SDS011;22237;51.974;4.616;2022-12-18T12:52:46;43.63;;;40.25;;
36195;SDS011;22237;51.974;4.616;2022-12-18T12:55:28;34.92;;;31.58;;
36195;SDS011;22237;51.974;4.616;2022-12-18T12:57:59;41.05;;;37.33;;
36195;SDS011;22237;51.974;4.616;2022-12-18T13:00:27;28.83;;;25.83;;
36195;SDS011;22237;51.974;4.616;2022-12-18T13:03:01;28.42;;;23.55;;
36195;SDS011;22237;51.974;4.616;2022-12-18T13:13:10;28.10;;;20.85;;
36195;SDS011;22237;51.974;4.616;2022-12-18T13:15:43;40.38;;;36.65;;
36195;SDS011;22237;51.974;4.616;2022-12-18T13:20:35;31.30;;;25.57;;
36195;SDS011;22237;51.974;4.616;2022-12-18T13:23:01;32.72;;;29.52;;
36195;SDS011;22237;51.974;4.616;2022-12-18T13:28:02;48.97;;;44.95;;
36195;SDS011;22237;51.974;4.616;2022-12-18T13:45:48;36.72;;;33.53;;
36195;SDS011;22237;51.974;4.616;2022-12-18T13:48:15;29.80;;;26.80;;
36195;SDS011;22237;51.974;4.616;2022-12-18T13:50:45;32.63;;;27.30;;
36195;SDS011;22237;51.974;4.616;2022-12-18T13:53:19;132.35;;;120.20;;
36195;SDS011;22237;51.974;4.616;2022-12-18T13:55:45;43.45;;;39.17;;
36195;SDS011;22237;51.974;4.616;2022-12-18T13:58:11;34.78;;;31.35;;
36195;SDS011;22237;51.974;4.616;2022-12-18T14:00:36;73.70;;;66.47;;
36195;SDS011;22237;51.974;4.616;2022-12-18T14:03:15;29.80;;;23.98;;
36195;SDS011;22237;51.974;4.616;2022-12-18T14:05:41;28.98;;;24.80;;
36195;SDS011;22237;51.974;4.616;2022-12-18T14:08:10;34.17;;;31.00;;
36195;SDS011;22237;51.974;4.616;2022-12-18T14:10:40;29.40;;;26.20;;
36195;SDS011;22237;51.974;4.616;2022-12-18T14:13:06;67.22;;;60.72;;
36195;SDS011;22237;51.974;4.616;2022-12-18T14:15:38;55.83;;;50.67;;
36195;SDS011;22237;51.974;4.616;2022-12-18T14:18:23;34.07;;;30.47;;
36195;SDS011;22237;51.974;4.616;2022-12-18T14:20:50;29.60;;;21.48;;
36195;SDS011;22237;51.974;4.616;2022-12-18T14:23:26;30.10;;;27.10;;
36195;SDS011;22237;51.974;4.616;2022-12-18T14:25:51;37.15;;;33.53;;
36195;SDS011;22237;51.974;4.616;2022-12-18T14:28:16;34.38;;;31.10;;
36195;SDS011;22237;51.974;4.616;2022-12-18T14:30:43;143.73;;;129.02;;
36195;SDS011;22237;51.974;4.616;2022-12-18T14:35:51;29.95;;;27.05;;
36195;SDS011;22237;51.974;4.616;2022-12-18T14:38:34;30.10;;;27.10;;
36195;SDS011;22237;51.974;4.616;2022-12-18T14:41:03;32.00;;;29.15;;
36195;SDS011;22237;51.974;4.616;2022-12-18T14:43:33;35.78;;;32.75;;
36195;SDS011;22237;51.974;4.616;2022-12-18T14:45:59;33.88;;;30.58;;
36195;SDS011;22237;51.974;4.616;2022-12-18T14:48:31;29.30;;;25.27;;
36195;SDS011;22237;51.974;4.616;2022-12-18T14:51:00;42.75;;;38.88;;
36195;SDS011;22237;51.974;4.616;2022-12-18T14:55:59;43.95;;;40.13;;
36195;SDS011;22237;51.974;4.616;2022-12-18T14:58:25;83.35;;;75.32;;
36195;SDS011;22237;51.974;4.616;2022-12-18T15:00:50;39.58;;;36.15;;
36195;SDS011;22237;51.974;4.616;2022-12-18T15:03:19;142.35;;;121.60;;
36195;SDS011;22237;51.974;4.616;2022-12-18T15:05:45;43.05;;;38.47;;
36195;SDS011;22237;51.974;4.616;2022-12-18T15:08:35;36.67;;;33.20;;
36195;SDS011;22237;51.974;4.616;2022-12-18T15:11:01;89.93;;;80.80;;
36195;SDS011;22237;51.974;4.616;2022-12-18T15:13:26;105.03;;;95.63;;
36195;SDS011;22237;51.974;4.616;2022-12-18T15:15:52;120.60;;;109.72;;
36195;SDS011;22237;51.974;4.616;2022-12-18T15:18:19;128.38;;;115.38;;
36195;SDS011;22237;51.974;4.616;2022-12-18T15:35:25;206.02;;;184.40;;
36195;SDS011;22237;51.974;4.616;2022-12-18T15:38:12;41.42;;;38.03;;
36195;SDS011;22237;51.974;4.616;2022-12-18T15:40:44;138.50;;;125.80;;
36195;SDS011;22237;51.974;4.616;2022-12-18T15:43:10;41.83;;;38.10;;
36195;SDS011;22237;51.974;4.616;2022-12-18T15:46:27;114.63;;;104.07;;
36195;SDS011;22237;51.974;4.616;2022-12-18T15:48:55;38.33;;;34.90;;
36195;SDS011;22237;51.974;4.616;2022-12-18T15:54:37;316.95;;;287.02;;
36195;SDS011;22237;51.974;4.616;2022-12-18T15:57:22;48.10;;;44.08;;
36195;SDS011;22237;51.974;4.616;2022-12-18T15:59:52;292.50;;;263.95;;
36195;SDS011;22237;51.974;4.616;2022-12-18T16:02:30;33.67;;;30.33;;
36195;SDS011;22237;51.974;4.616;2022-12-18T16:05:00;35.90;;;33.00;;
36195;SDS011;22237;51.974;4.616;2022-12-18T16:07:29;65.90;;;59.90;;
36195;SDS011;22237;51.974;4.616;2022-12-18T16:10:15;37.38;;;34.28;;
36195;SDS011;22237;51.974;4.616;2022-12-18T16:15:58;162.38;;;147.35;;
36195;SDS011;22237;51.974;4.616;2022-12-18T16:18:23;40.92;;;37.30;;
36195;SDS011;22237;51.974;4.616;2022-12-18T16:20:49;31.48;;;27.50;;
36195;SDS011;22237;51.974;4.616;2022-12-18T16:23:14;31.30;;;26.75;;
36195;SDS011;22237;51.974;4.616;2022-12-18T16:25:40;30.38;;;27.27;;
36195;SDS011;22237;51.974;4.616;2022-12-18T16:28:05;33.00;;;30.13;;
36195;SDS011;22237;51.974;4.616;2022-12-18T16:30:31;66.63;;;59.40;;
36195;SDS011;22237;51.974;4.616;2022-12-18T16:32:57;28.15;;;18.85;;
36195;SDS011;22237;51.974;4.616;2022-12-18T16:35:24;29.23;;;23.55;;
36195;SDS011;22237;51.974;4.616;2022-12-18T16:37:53;29.90;;;24.23;;